sensor_id;sensor_type;location;lat;lon;timestamp;P1;durP1;ratioP1;P2;durP2;ratioP2
56493;SDS011;42392;42.648;27.652;2024-01-07T00:03:38;37.80;;;17.95;;
56493;SDS011;42392;42.648;27.652;2024-01-07T00:11:48;29.90;;;17.20;;
56493;SDS011;42392;42.648;27.652;2024-01-07T00:13:50;31.65;;;15.10;;
56493;SDS011;42392;42.648;27.652;2024-01-07T00:15:53;31.50;;;14.90;;
56493;SDS011;42392;42.648;27.652;2024-01-07T00:17:58;40.90;;;20.38;;
56493;SDS011;42392;42.648;27.652;2024-01-07T00:20:00;49.50;;;22.52;;
56493;SDS011;42392;42.648;27.652;2024-01-07T00:22:02;43.67;;;21.90;;
56493;SDS011;42392;42.648;27.652;2024-01-07T00:24:05;49.92;;;25.13;;
56493;SDS011;42392;42.648;27.652;2024-01-07T00:26:07;41.38;;;19.83;;
56493;SDS011;42392;42.648;27.652;2024-01-07T00:28:10;42.38;;;20.73;;
56493;SDS011;42392;42.648;27.652;2024-01-07T00:30:12;41.60;;;20.42;;
56493;SDS011;42392;42.648;27.652;2024-01-07T00:32:15;36.50;;;20.10;;
56493;SDS011;42392;42.648;27.652;2024-01-07T00:34:17;33.90;;;19.77;;
56493;SDS011;42392;42.648;27.652;2024-01-07T00:36:19;34.10;;;20.52;;
56493;SDS011;42392;42.648;27.652;2024-01-07T00:38:21;38.60;;;20.65;;
56493;SDS011;42392;42.648;27.652;2024-01-07T00:40:23;32.67;;;20.23;;
56493;SDS011;42392;42.648;27.652;2024-01-07T00:42:26;37.08;;;20.67;;
56493;SDS011;42392;42.648;27.652;2024-01-07T00:44:28;32.53;;;17.33;;
56493;SDS011;42392;42.648;27.652;2024-01-07T00:46:30;26.77;;;14.73;;
56493;SDS011;42392;42.648;27.652;2024-01-07T00:48:32;31.63;;;16.25;;
56493;SDS011;42392;42.648;27.652;2024-01-07T00:50:34;24.90;;;13.63;;
56493;SDS011;42392;42.648;27.652;2024-01-07T00:52:36;29.05;;;13.30;;
56493;SDS011;42392;42.648;27.652;2024-01-07T00:54:38;22.35;;;11.27;;
56493;SDS011;42392;42.648;27.652;2024-01-07T00:56:40;28.42;;;14.80;;
56493;SDS011;42392;42.648;27.652;2024-01-07T00:58:42;23.95;;;10.77;;
56493;SDS011;42392;42.648;27.652;2024-01-07T01:00:44;19.27;;;10.27;;
56493;SDS011;42392;42.648;27.652;2024-01-07T01:02:46;19.42;;;9.73;;
56493;SDS011;42392;42.648;27.652;2024-01-07T01:04:48;23.05;;;11.00;;
56493;SDS011;42392;42.648;27.652;2024-01-07T01:06:50;25.20;;;10.68;;
56493;SDS011;42392;42.648;27.652;2024-01-07T01:08:52;19.70;;;9.65;;
56493;SDS011;42392;42.648;27.652;2024-01-07T01:10:54;22.80;;;9.43;;
56493;SDS011;42392;42.648;27.652;2024-01-07T01:12:56;22.60;;;8.60;;
56493;SDS011;42392;42.648;27.652;2024-01-07T01:14:58;19.00;;;10.05;;
56493;SDS011;42392;42.648;27.652;2024-01-07T01:17:00;20.20;;;9.13;;
56493;SDS011;42392;42.648;27.652;2024-01-07T01:19:03;20.83;;;9.77;;
56493;SDS011;42392;42.648;27.652;2024-01-07T01:21:05;30.10;;;11.82;;
56493;SDS011;42392;42.648;27.652;2024-01-07T01:23:09;30.83;;;11.95;;
56493;SDS011;42392;42.648;27.652;2024-01-07T01:25:11;26.75;;;10.68;;
56493;SDS011;42392;42.648;27.652;2024-01-07T01:27:13;29.08;;;10.90;;
56493;SDS011;42392;42.648;27.652;2024-01-07T01:29:16;22.17;;;9.50;;
56493;SDS011;42392;42.648;27.652;2024-01-07T01:31:18;25.08;;;9.45;;
56493;SDS011;42392;42.648;27.652;2024-01-07T01:33:20;25.52;;;11.02;;
56493;SDS011;42392;42.648;27.652;2024-01-07T01:35:23;47.70;;;25.48;;
56493;SDS011;42392;42.648;27.652;2024-01-07T01:37:25;31.20;;;14.25;;
56493;SDS011;42392;42.648;27.652;2024-01-07T01:39:28;32.75;;;13.70;;
56493;SDS011;42392;42.648;27.652;2024-01-07T01:41:30;200.68;;;47.17;;
56493;SDS011;42392;42.648;27.652;2024-01-07T01:43:33;158.23;;;50.97;;
56493;SDS011;42392;42.648;27.652;2024-01-07T01:45:35;63.88;;;31.30;;
56493;SDS011;42392;42.648;27.652;2024-01-07T01:47:37;38.33;;;18.42;;
56493;SDS011;42392;42.648;27.652;2024-01-07T01:49:40;38.85;;;16.27;;
56493;SDS011;42392;42.648;27.652;2024-01-07T01:51:42;36.80;;;15.18;;
56493;SDS011;42392;42.648;27.652;2024-01-07T01:53:44;35.22;;;15.38;;
56493;SDS011;42392;42.648;27.652;2024-01-07T01:55:47;26.85;;;10.85;;
56493;SDS011;42392;42.648;27.652;2024-01-07T01:57:49;12.20;;;5.07;;
